createdAt,value
2023-02-19T00:02:22.658Z,10.60
2023-02-19T00:04:49.788Z,10.70
2023-02-19T00:07:17.366Z,10.70
2023-02-19T00:09:44.661Z,10.70
2023-02-19T00:12:12.001Z,10.60
2023-02-19T00:14:39.178Z,10.60
2023-02-19T00:17:06.174Z,10.60
2023-02-19T00:19:33.221Z,10.60
2023-02-19T00:22:00.138Z,10.60
2023-02-19T00:24:27.103Z,10.50
2023-02-19T00:26:54.047Z,10.50
2023-02-19T00:29:22.051Z,10.50
2023-02-19T00:31:49.820Z,10.50
2023-02-19T00:34:16.879Z,10.40
2023-02-19T00:36:44.450Z,10.50
2023-02-19T00:39:15.261Z,10.50
2023-02-19T00:41:42.315Z,10.40
2023-02-19T00:44:11.518Z,10.50
2023-02-19T00:46:41.983Z,10.50
2023-02-19T00:49:15.896Z,10.40
2023-02-19T00:51:42.839Z,10.40
2023-02-19T00:54:11.326Z,10.40
2023-02-19T00:56:38.529Z,10.40
2023-02-19T00:59:05.947Z,10.30
2023-02-19T01:01:33.035Z,10.30
2023-02-19T01:04:00.264Z,10.30
2023-02-19T01:06:29.968Z,10.30
2023-02-19T01:08:57.007Z,10.30
2023-02-19T01:11:23.986Z,10.30
2023-02-19T01:13:51.178Z,10.30
2023-02-19T01:16:24.901Z,10.30
2023-02-19T01:18:52.001Z,10.30
2023-02-19T01:21:22.495Z,10.30
2023-02-19T01:23:50.984Z,10.30
2023-02-19T01:26:23.887Z,10.30
2023-02-19T01:28:50.868Z,10.30
2023-02-19T01:31:20.817Z,10.30
2023-02-19T01:33:50.487Z,10.30
2023-02-19T01:36:18.357Z,10.30
2023-02-19T01:38:45.518Z,10.30
2023-02-19T01:41:15.849Z,10.20
2023-02-19T01:44:12.772Z,10.20
2023-02-19T01:46:44.038Z,10.20
2023-02-19T01:49:29.031Z,10.20
2023-02-19T01:52:13.087Z,10.20
2023-02-19T01:54:42.996Z,10.20
2023-02-19T01:57:16.399Z,10.20
2023-02-19T01:59:44.014Z,10.20
2023-02-19T02:02:11.514Z,10.10
2023-02-19T02:04:38.857Z,10.20
2023-02-19T02:07:29.841Z,10.20
2023-02-19T02:10:15.803Z,10.10
2023-02-19T02:12:42.828Z,10.10
2023-02-19T02:15:10.009Z,10.10
2023-02-19T02:17:52.050Z,10.10
2023-02-19T02:20:58.217Z,10.10
2023-02-19T02:24:02.979Z,10.10
2023-02-19T02:26:45.505Z,10.00
2023-02-19T02:29:45.963Z,10.10
2023-02-19T02:32:20.079Z,10.00
2023-02-19T02:35:13.482Z,10.00
2023-02-19T02:37:44.277Z,10.00
2023-02-19T02:40:12.865Z,10.00
2023-02-19T02:42:40.582Z,10.00
2023-02-19T02:45:36.592Z,9.90
2023-02-19T02:48:37.047Z,10.00
2023-02-19T02:51:22.495Z,10.00
2023-02-19T02:54:23.282Z,10.00
2023-02-19T02:56:52.565Z,10.00
2023-02-19T02:59:25.040Z,10.00
2023-02-19T03:02:18.841Z,10.00
2023-02-19T03:05:14.146Z,10.00
2023-02-19T03:07:48.088Z,10.00
2023-02-19T03:10:31.218Z,10.10
2023-02-19T03:13:20.908Z,10.10
2023-02-19T03:16:21.083Z,10.10
2023-02-19T03:19:12.067Z,10.10
2023-02-19T03:21:42.276Z,10.10
2023-02-19T03:24:30.781Z,10.10
2023-02-19T03:27:01.453Z,10.10
2023-02-19T03:29:37.557Z,10.10
2023-02-19T03:32:24.092Z,10.10
2023-02-19T03:35:13.260Z,10.10
2023-02-19T03:38:10.202Z,10.10
2023-02-19T03:40:49.691Z,10.10
2023-02-19T03:43:35.020Z,10.10
2023-02-19T03:46:15.624Z,10.10
2023-02-19T03:49:01.900Z,10.10
2023-02-19T03:51:35.164Z,10.10
2023-02-19T03:54:35.302Z,10.10
2023-02-19T03:57:27.393Z,10.10
2023-02-19T03:59:59.137Z,10.00
2023-02-19T04:02:57.911Z,10.00
2023-02-19T04:05:29.701Z,10.00
2023-02-19T04:08:17.020Z,10.00
2023-02-19T04:10:50.981Z,9.90
2023-02-19T04:13:31.943Z,9.90
2023-02-19T04:16:03.663Z,9.80
2023-02-19T04:18:32.880Z,9.80
2023-02-19T04:21:00.758Z,9.70
2023-02-19T04:23:32.491Z,9.70
2023-02-19T04:26:01.286Z,9.70
2023-02-19T04:28:29.444Z,9.70
2023-02-19T04:30:56.539Z,9.70
2023-02-19T04:33:23.550Z,9.70
2023-02-19T04:35:50.428Z,9.70
2023-02-19T04:38:17.373Z,9.60
2023-02-19T04:40:44.380Z,9.70
2023-02-19T04:43:11.401Z,9.60
2023-02-19T04:45:39.090Z,9.60
2023-02-19T04:48:06.274Z,9.60
2023-02-19T04:50:33.303Z,9.60
2023-02-19T04:53:00.426Z,9.60
2023-02-19T04:55:27.503Z,9.60
2023-02-19T04:57:54.478Z,9.60
2023-02-19T05:00:21.711Z,9.60
2023-02-19T05:02:48.722Z,9.60
2023-02-19T05:05:16.389Z,9.60
2023-02-19T05:07:43.537Z,9.60
2023-02-19T05:10:10.492Z,9.60
2023-02-19T05:12:37.495Z,9.60
2023-02-19T05:15:04.843Z,9.50
2023-02-19T05:17:34.535Z,9.50
2023-02-19T05:20:01.633Z,9.50
2023-02-19T05:22:29.969Z,9.50
2023-02-19T05:24:56.921Z,9.50
2023-02-19T05:27:23.921Z,9.50
2023-02-19T05:29:50.916Z,9.50
2023-02-19T05:32:17.994Z,9.50
2023-02-19T05:34:44.989Z,9.50
2023-02-19T05:37:12.069Z,9.50
2023-02-19T05:39:39.057Z,9.50
2023-02-19T05:42:06.290Z,9.50
2023-02-19T05:44:33.221Z,9.60
2023-02-19T05:47:00.302Z,9.60
2023-02-19T05:49:27.913Z,9.60
2023-02-19T05:51:55.227Z,9.60
2023-02-19T05:54:22.163Z,9.60
2023-02-19T05:56:49.874Z,9.60
2023-02-19T05:59:23.368Z,9.60
2023-02-19T06:01:52.280Z,9.60
2023-02-19T06:04:20.452Z,9.60
2023-02-19T06:06:47.904Z,9.60
2023-02-19T06:09:15.064Z,9.60
2023-02-19T06:11:43.440Z,9.60
2023-02-19T06:14:13.760Z,9.60
2023-02-19T06:16:41.175Z,9.60
2023-02-19T06:19:08.306Z,9.60
2023-02-19T06:21:35.413Z,9.60
2023-02-19T06:24:07.591Z,9.60
2023-02-19T06:26:35.107Z,9.60
2023-02-19T06:29:02.110Z,9.60
2023-02-19T06:31:29.324Z,9.60
2023-02-19T06:33:56.391Z,9.60
2023-02-19T06:36:24.058Z,9.60
2023-02-19T06:38:51.505Z,9.50
2023-02-19T06:41:19.474Z,9.50
2023-02-19T06:43:46.741Z,9.50
2023-02-19T06:46:14.084Z,9.50
2023-02-19T06:48:45.611Z,9.50
2023-02-19T06:51:14.658Z,9.40
2023-02-19T06:53:41.732Z,9.40
2023-02-19T06:56:22.739Z,9.40
2023-02-19T06:58:49.770Z,9.40
2023-02-19T07:01:16.942Z,9.40
2023-02-19T07:03:43.999Z,9.40
2023-02-19T07:06:10.948Z,9.40
2023-02-19T07:08:38.102Z,9.30
2023-02-19T07:11:05.309Z,9.30
2023-02-19T07:13:32.611Z,9.30
2023-02-19T07:16:01.359Z,9.30
2023-02-19T07:18:30.108Z,9.30
2023-02-19T07:21:06.665Z,9.30
2023-02-19T07:23:33.908Z,9.30
2023-02-19T07:26:01.227Z,9.20
2023-02-19T07:28:28.330Z,9.30
2023-02-19T07:31:03.946Z,9.30
2023-02-19T07:33:31.190Z,9.20
2023-02-19T07:35:58.367Z,9.30
2023-02-19T07:38:26.589Z,9.30
2023-02-19T07:40:54.249Z,9.30
2023-02-19T07:43:23.914Z,9.40
2023-02-19T07:45:51.989Z,9.40
2023-02-19T07:48:19.519Z,9.40
2023-02-19T07:50:53.174Z,9.30
2023-02-19T07:53:21.391Z,9.30
2023-02-19T07:55:48.745Z,9.40
2023-02-19T07:58:15.943Z,9.40
2023-02-19T08:00:43.726Z,9.40
2023-02-19T08:03:11.297Z,9.40
2023-02-19T08:05:39.803Z,9.40
2023-02-19T08:08:12.768Z,9.40
2023-02-19T08:10:59.251Z,9.40
2023-02-19T08:13:28.098Z,9.40
2023-02-19T08:16:07.525Z,9.40
2023-02-19T08:18:42.092Z,9.40
2023-02-19T08:21:09.454Z,9.40
2023-02-19T08:23:37.016Z,9.40
2023-02-19T08:26:05.051Z,9.40
2023-02-19T08:28:32.901Z,9.50
2023-02-19T08:31:05.850Z,9.50
2023-02-19T08:33:32.993Z,9.50
2023-02-19T08:36:07.731Z,9.50
2023-02-19T08:38:36.643Z,9.50
2023-02-19T08:41:14.427Z,9.50
2023-02-19T08:43:42.732Z,9.50
2023-02-19T08:46:11.679Z,9.50
2023-02-19T08:48:39.774Z,9.50
2023-02-19T08:51:11.122Z,9.60
2023-02-19T08:53:40.627Z,9.60
2023-02-19T08:56:13.680Z,9.60
2023-02-19T08:58:40.976Z,9.60
2023-02-19T09:01:13.233Z,9.60
2023-02-19T09:03:41.219Z,9.60
2023-02-19T09:06:11.517Z,9.60
2023-02-19T09:08:39.118Z,9.70
2023-02-19T09:11:07.217Z,9.70
2023-02-19T09:13:34.417Z,9.70
2023-02-19T09:16:03.716Z,9.70
2023-02-19T09:18:31.210Z,9.70
2023-02-19T09:21:01.460Z,9.70
2023-02-19T09:23:29.017Z,9.70
2023-02-19T09:26:00.775Z,9.80
2023-02-19T09:28:28.236Z,9.70
2023-02-19T09:30:55.372Z,9.80
2023-02-19T09:33:22.460Z,9.80
2023-02-19T09:35:49.494Z,9.80
2023-02-19T09:38:16.432Z,9.80
2023-02-19T09:40:43.412Z,9.80
2023-02-19T09:43:19.229Z,9.80
2023-02-19T09:45:47.356Z,9.80
2023-02-19T09:48:14.603Z,9.80
2023-02-19T09:50:49.239Z,9.90
2023-02-19T09:53:21.645Z,9.90
2023-02-19T09:55:49.373Z,9.90
2023-02-19T09:58:27.477Z,9.80
2023-02-19T10:00:57.045Z,9.80
2023-02-19T10:03:33.717Z,9.90
2023-02-19T10:06:11.959Z,9.90
2023-02-19T10:08:40.583Z,10.00
2023-02-19T10:11:11.683Z,10.00
2023-02-19T10:13:50.776Z,10.00
2023-02-19T10:16:25.359Z,10.00
2023-02-19T10:18:53.082Z,10.10
2023-02-19T10:21:26.321Z,10.00
2023-02-19T10:23:57.988Z,10.10
2023-02-19T10:26:28.191Z,10.00
2023-02-19T10:28:55.631Z,10.00
2023-02-19T10:31:25.660Z,10.00
2023-02-19T10:34:00.425Z,9.90
2023-02-19T10:36:33.800Z,10.00
2023-02-19T10:39:03.040Z,10.00
2023-02-19T10:41:31.407Z,9.90
2023-02-19T10:44:13.731Z,10.00
2023-02-19T10:46:50.883Z,10.10
2023-02-19T10:49:30.173Z,10.20
2023-02-19T10:52:02.456Z,10.20
2023-02-19T10:54:33.346Z,10.30
2023-02-19T10:57:18.734Z,10.40
2023-02-19T10:59:57.633Z,10.50
2023-02-19T11:02:28.271Z,10.40
2023-02-19T11:05:20.908Z,10.40
2023-02-19T11:07:56.369Z,10.30
2023-02-19T11:10:35.950Z,10.30
2023-02-19T11:13:08.944Z,10.40
2023-02-19T11:15:37.444Z,10.40
2023-02-19T11:18:22.181Z,10.40
2023-02-19T11:20:51.328Z,10.50
2023-02-19T11:23:23.349Z,10.40
2023-02-19T11:25:54.034Z,10.40
2023-02-19T11:28:33.008Z,10.40
2023-02-19T11:31:14.329Z,10.40
2023-02-19T11:34:00.312Z,10.40
2023-02-19T11:36:32.126Z,10.50
2023-02-19T11:39:19.190Z,10.40
2023-02-19T11:42:07.806Z,10.50
2023-02-19T11:44:59.003Z,10.50
2023-02-19T11:47:43.786Z,10.40
2023-02-19T11:50:27.683Z,10.30
2023-02-19T11:53:22.136Z,10.40
2023-02-19T11:55:49.327Z,10.30
2023-02-19T11:58:51.741Z,10.30
2023-02-19T12:01:38.796Z,10.30
2023-02-19T12:04:27.338Z,10.30
2023-02-19T12:07:26.335Z,10.30
2023-02-19T12:10:13.546Z,10.30
2023-02-19T12:13:08.741Z,10.30
2023-02-19T12:15:49.336Z,10.20
2023-02-19T12:18:19.186Z,10.20
2023-02-19T12:21:22.030Z,10.10
2023-02-19T12:23:58.252Z,10.20
2023-02-19T12:26:54.808Z,10.30
2023-02-19T12:29:37.965Z,10.20
2023-02-19T12:32:30.731Z,10.10
2023-02-19T12:35:33.832Z,10.10
2023-02-19T12:38:25.647Z,10.10
2023-02-19T12:41:10.500Z,10.10
2023-02-19T12:43:41.973Z,10.10
2023-02-19T12:46:25.249Z,10.00
2023-02-19T12:49:02.615Z,9.80
2023-02-19T12:51:40.740Z,9.80
2023-02-19T12:54:23.833Z,9.80
2023-02-19T12:57:01.368Z,9.70
2023-02-19T12:59:35.118Z,9.70
2023-02-19T13:02:11.134Z,9.80
2023-02-19T13:05:04.458Z,9.80
2023-02-19T13:07:56.044Z,9.70
2023-02-19T13:10:32.114Z,9.70
2023-02-19T13:13:04.991Z,9.70
2023-02-19T13:15:49.024Z,9.70
2023-02-19T13:18:56.407Z,9.70
2023-02-19T13:21:50.012Z,9.70
2023-02-19T13:24:31.262Z,9.70
2023-02-19T13:27:08.758Z,9.60
2023-02-19T13:30:12.899Z,9.60
2023-02-19T13:32:58.934Z,9.50
2023-02-19T13:36:20.395Z,9.60
2023-02-19T13:38:50.119Z,9.50
2023-02-19T13:41:18.861Z,9.50
2023-02-19T13:43:47.096Z,9.60
2023-02-19T13:46:17.537Z,9.60
2023-02-19T13:48:45.098Z,9.60
2023-02-19T13:51:23.725Z,9.60
2023-02-19T13:53:59.728Z,9.60
2023-02-19T13:56:35.423Z,9.60
2023-02-19T13:59:46.098Z,9.50
2023-02-19T14:02:22.730Z,9.50
2023-02-19T14:04:52.072Z,9.60
2023-02-19T14:07:19.471Z,9.50
2023-02-19T14:09:47.025Z,9.60
2023-02-19T14:12:15.914Z,9.60
2023-02-19T14:14:48.395Z,9.60
2023-02-19T14:17:34.936Z,9.60
2023-02-19T14:20:17.594Z,9.60
2023-02-19T14:22:50.204Z,9.60
2023-02-19T14:25:29.416Z,9.60
2023-02-19T14:28:24.145Z,9.60
2023-02-19T14:30:58.886Z,9.60
2023-02-19T14:33:32.359Z,9.70
2023-02-19T14:36:26.007Z,9.70
2023-02-19T14:38:58.272Z,9.60
2023-02-19T14:41:28.758Z,9.60
2023-02-19T14:43:58.635Z,9.60
2023-02-19T14:46:32.452Z,9.70
2023-02-19T14:49:20.130Z,9.60
2023-02-19T14:51:52.408Z,9.60
2023-02-19T14:54:33.715Z,9.60
2023-02-19T14:57:03.306Z,9.50
2023-02-19T14:59:30.888Z,9.40
2023-02-19T15:02:17.966Z,9.30
2023-02-19T15:04:45.446Z,9.20
2023-02-19T15:07:21.608Z,9.30
2023-02-19T15:09:53.042Z,9.20
2023-02-19T15:12:28.979Z,9.20
2023-02-19T15:14:59.848Z,9.20
2023-02-19T15:17:30.241Z,9.20
2023-02-19T15:20:00.627Z,9.10
2023-02-19T15:22:31.938Z,9.20
2023-02-19T15:25:04.286Z,9.20
2023-02-19T15:27:33.033Z,9.20
2023-02-19T15:30:00.071Z,9.10
2023-02-19T15:32:28.716Z,9.00
2023-02-19T15:34:59.824Z,8.90
2023-02-19T15:37:30.132Z,9.00
2023-02-19T15:40:01.530Z,9.00
2023-02-19T15:42:30.876Z,8.80
2023-02-19T15:45:04.328Z,8.80
2023-02-19T15:47:37.263Z,8.70
2023-02-19T15:50:17.662Z,8.80
2023-02-19T15:53:07.113Z,8.80
2023-02-19T15:55:49.541Z,8.80
2023-02-19T15:58:27.813Z,8.80
2023-02-19T16:00:59.491Z,8.80
2023-02-19T16:03:29.842Z,8.70
2023-02-19T16:06:04.447Z,8.70
2023-02-19T16:08:34.258Z,8.70
2023-02-19T16:11:03.866Z,8.70
2023-02-19T16:13:33.583Z,8.70
2023-02-19T16:16:35.780Z,8.70
2023-02-19T16:19:03.208Z,8.70
2023-02-19T16:21:30.206Z,8.40
2023-02-19T16:24:05.260Z,8.40
2023-02-19T16:26:40.732Z,8.50
2023-02-19T16:29:28.950Z,8.40
2023-02-19T16:32:05.133Z,8.40
2023-02-19T16:34:44.013Z,8.30
2023-02-19T16:37:37.167Z,8.30
2023-02-19T16:40:13.629Z,8.40
2023-02-19T16:42:51.699Z,8.40
2023-02-19T16:45:19.143Z,8.40
2023-02-19T16:47:53.258Z,8.40
2023-02-19T16:50:25.394Z,8.40
2023-02-19T16:52:57.754Z,8.30
2023-02-19T16:55:25.321Z,8.30
2023-02-19T16:57:52.667Z,8.30
2023-02-19T17:00:25.498Z,8.30
2023-02-19T17:02:54.950Z,8.30
2023-02-19T17:05:24.154Z,8.20
2023-02-19T17:07:51.399Z,8.20
2023-02-19T17:10:28.360Z,8.30
2023-02-19T17:12:56.104Z,8.20
2023-02-19T17:15:23.763Z,8.20
2023-02-19T17:17:50.803Z,8.10
2023-02-19T17:20:17.983Z,8.10
2023-02-19T17:22:45.117Z,7.90
2023-02-19T17:25:12.212Z,8.00
2023-02-19T17:27:39.353Z,8.00
2023-02-19T17:30:26.602Z,8.00
2023-02-19T17:32:53.616Z,8.00
2023-02-19T17:35:21.166Z,7.90
2023-02-19T17:37:48.332Z,7.80
2023-02-19T17:40:33.227Z,7.70
2023-02-19T17:43:01.082Z,7.70
2023-02-19T17:45:28.445Z,7.60
2023-02-19T17:47:55.513Z,7.60
2023-02-19T17:50:29.306Z,7.60
2023-02-19T17:52:56.739Z,7.60
2023-02-19T17:55:24.321Z,7.60
2023-02-19T17:57:52.387Z,7.60
2023-02-19T18:00:25.258Z,7.50
2023-02-19T18:02:52.515Z,7.50
2023-02-19T18:05:19.836Z,7.50
2023-02-19T18:07:48.115Z,7.50
2023-02-19T18:10:18.487Z,7.40
2023-02-19T18:12:45.657Z,7.40
2023-02-19T18:15:21.085Z,7.40
2023-02-19T18:17:48.115Z,7.40
2023-02-19T18:20:17.343Z,7.40
2023-02-19T18:22:44.659Z,7.30
2023-02-19T18:25:11.755Z,7.30
2023-02-19T18:27:39.019Z,7.30
2023-02-19T18:30:07.279Z,7.30
2023-02-19T18:32:34.606Z,7.30
2023-02-19T18:35:01.852Z,7.30
2023-02-19T18:37:33.945Z,7.30
2023-02-19T18:40:01.869Z,7.20
2023-02-19T18:42:29.109Z,7.20
2023-02-19T18:44:56.497Z,7.30
2023-02-19T18:47:27.657Z,7.20
2023-02-19T18:50:01.100Z,7.10
2023-02-19T18:52:28.658Z,7.10
2023-02-19T18:54:57.427Z,7.10
2023-02-19T18:57:27.540Z,7.10
2023-02-19T18:59:54.818Z,7.10
2023-02-19T19:02:22.332Z,7.00
2023-02-19T19:04:51.961Z,7.10
2023-02-19T19:07:20.271Z,7.10
2023-02-19T19:09:47.677Z,7.10
2023-02-19T19:12:15.687Z,7.00
2023-02-19T19:14:42.921Z,7.00
2023-02-19T19:17:10.135Z,7.00
2023-02-19T19:19:37.281Z,6.90
2023-02-19T19:22:04.440Z,6.90
2023-02-19T19:24:31.419Z,6.90
2023-02-19T19:26:59.941Z,6.90
2023-02-19T19:29:28.286Z,7.00
2023-02-19T19:31:56.359Z,6.90
2023-02-19T19:34:25.832Z,6.80
2023-02-19T19:36:54.083Z,6.70
2023-02-19T19:39:21.172Z,6.70
2023-02-19T19:41:54.638Z,6.80
2023-02-19T19:44:22.272Z,6.70
2023-02-19T19:46:49.705Z,6.70
2023-02-19T19:49:18.622Z,6.60
2023-02-19T19:51:45.910Z,6.60
2023-02-19T19:54:13.390Z,6.60
2023-02-19T19:56:46.406Z,6.60
2023-02-19T19:59:16.413Z,6.60
2023-02-19T20:01:54.829Z,6.50
2023-02-19T20:04:23.284Z,6.60
2023-02-19T20:06:50.625Z,6.60
2023-02-19T20:09:18.945Z,6.50
2023-02-19T20:11:52.529Z,6.40
2023-02-19T20:14:31.905Z,6.40
2023-02-19T20:17:02.728Z,6.30
2023-02-19T20:19:39.098Z,6.20
2023-02-19T20:22:11.146Z,6.20
2023-02-19T20:24:44.248Z,6.20
2023-02-19T20:27:15.808Z,6.30
2023-02-19T20:29:45.296Z,6.20
2023-02-19T20:32:22.132Z,6.20
2023-02-19T20:34:49.558Z,6.20
2023-02-19T20:37:18.017Z,6.20
2023-02-19T20:39:45.611Z,6.20
2023-02-19T20:42:16.713Z,6.20
2023-02-19T20:44:45.695Z,6.20
2023-02-19T20:47:15.426Z,6.10
2023-02-19T20:49:46.484Z,6.10
2023-02-19T20:52:16.569Z,6.10
2023-02-19T20:54:45.033Z,6.00
2023-02-19T20:57:16.385Z,5.90
2023-02-19T20:59:44.384Z,6.00
2023-02-19T21:02:21.112Z,5.90
2023-02-19T21:04:48.782Z,5.80
2023-02-19T21:07:17.107Z,5.90
2023-02-19T21:09:44.586Z,5.90
2023-02-19T21:12:12.806Z,5.80
2023-02-19T21:14:41.919Z,5.80
2023-02-19T21:17:11.036Z,5.80
2023-02-19T21:19:38.298Z,5.80
2023-02-19T21:22:06.603Z,5.70
2023-02-19T21:24:33.894Z,5.70
2023-02-19T21:27:02.548Z,5.70
2023-02-19T21:29:29.682Z,5.70
2023-02-19T21:31:58.818Z,5.70
2023-02-19T21:34:29.427Z,5.70
2023-02-19T21:36:58.011Z,5.70
2023-02-19T21:39:26.532Z,5.60
2023-02-19T21:41:53.972Z,5.60
2023-02-19T21:44:21.782Z,5.60
2023-02-19T21:46:49.687Z,5.50
2023-02-19T21:49:17.849Z,5.60
2023-02-19T21:51:48.042Z,5.50
2023-02-19T21:54:18.720Z,5.60
2023-02-19T21:56:47.304Z,5.60
2023-02-19T21:59:14.864Z,5.60
2023-02-19T22:01:43.574Z,5.70
2023-02-19T22:04:15.451Z,5.60
2023-02-19T22:06:43.003Z,5.60
2023-02-19T22:09:11.552Z,5.60
2023-02-19T22:11:38.607Z,5.70
2023-02-19T22:14:05.976Z,5.60
2023-02-19T22:16:35.131Z,5.60
2023-02-19T22:19:02.778Z,5.60
2023-02-19T22:21:32.620Z,5.60
2023-02-19T22:24:01.339Z,5.60
2023-02-19T22:26:32.315Z,5.60
2023-02-19T22:29:00.151Z,5.60
2023-02-19T22:31:28.899Z,5.60
2023-02-19T22:33:56.420Z,5.60
2023-02-19T22:36:26.364Z,5.60
2023-02-19T22:38:53.542Z,5.60
2023-02-19T22:41:22.855Z,5.60
2023-02-19T22:43:50.318Z,5.60
2023-02-19T22:46:20.849Z,5.60
2023-02-19T22:48:48.561Z,5.60
2023-02-19T22:51:19.754Z,5.60
2023-02-19T22:53:55.821Z,5.60
2023-02-19T22:56:25.729Z,5.60
2023-02-19T22:58:54.008Z,5.70
2023-02-19T23:01:21.574Z,5.70
2023-02-19T23:03:50.696Z,5.70
2023-02-19T23:06:21.684Z,5.70
2023-02-19T23:08:49.014Z,5.70
2023-02-19T23:11:26.864Z,5.70
2023-02-19T23:13:54.209Z,5.70
2023-02-19T23:16:25.085Z,5.70
2023-02-19T23:18:52.721Z,5.70
2023-02-19T23:21:21.120Z,5.80
2023-02-19T23:23:48.682Z,5.80
2023-02-19T23:26:16.360Z,5.80
2023-02-19T23:28:44.614Z,5.90
2023-02-19T23:31:12.950Z,5.80
2023-02-19T23:33:40.627Z,5.80
2023-02-19T23:36:09.029Z,5.80
2023-02-19T23:38:36.548Z,5.80
2023-02-19T23:41:08.379Z,5.90
2023-02-19T23:43:37.503Z,5.90
2023-02-19T23:46:06.767Z,5.90
2023-02-19T23:48:34.281Z,5.90
2023-02-19T23:51:01.651Z,5.90
2023-02-19T23:53:28.793Z,5.90
2023-02-19T23:55:56.049Z,5.90
2023-02-19T23:58:23.136Z,5.90
